createdAt,value
2022-12-03T00:00:05.041Z,72.79469670781405
2022-12-03T00:15:02.191Z,73.33415407050774
2022-12-03T00:30:01.890Z,73.03625742678257
2022-12-03T00:45:02.541Z,73.53345534057586
2022-12-03T01:00:02.184Z,73.07968455402015
2022-12-03T01:15:01.840Z,73.02038548264089
2022-12-03T01:30:02.510Z,73.70931242155608
2022-12-03T01:45:02.161Z,72.93181796132983
2022-12-03T02:00:01.794Z,73.81749887297065
2022-12-03T02:15:02.446Z,74.63855325874664
2022-12-03T02:30:02.121Z,74.02100914961353
2022-12-03T02:45:05.136Z,73.56494283828295
2022-12-03T03:00:02.341Z,73.11577779303695
2022-12-03T03:15:01.963Z,73.74693915887913
2022-12-03T03:30:01.649Z,73.06185786148345
2022-12-03T03:45:02.355Z,72.68855410593193
2022-12-03T04:00:01.986Z,73.82843587566953
2022-12-03T04:15:01.645Z,72.96633831938654
2022-12-03T04:30:02.295Z,73.41059634656902
2022-12-03T04:45:01.982Z,73.63193029521618
2022-12-03T05:00:01.638Z,73.30764166246281
2022-12-03T05:15:02.361Z,73.80862424365803
2022-12-03T05:30:01.566Z,73.8762449367783
2022-12-03T05:45:02.163Z,74.52624458956505
2022-12-03T06:00:01.809Z,74.68416280657921
2022-12-03T06:15:02.454Z,74.80646412470605
2022-12-03T06:30:02.174Z,75.09635438440935
2022-12-03T06:45:01.835Z,74.78688841054213
2022-12-03T07:00:02.474Z,74.76711169398591
2022-12-03T07:15:02.105Z,73.97454877883814
2022-12-03T07:30:01.783Z,74.2225930020843
2022-12-03T07:45:02.402Z,74.4583579934718
2022-12-03T08:00:02.007Z,74.28541657490494
2022-12-03T08:15:01.662Z,73.9883535484791
2022-12-03T08:30:02.374Z,74.01963121569004
2022-12-03T08:45:02.009Z,74.53338536537132
2022-12-03T09:00:01.640Z,74.33403113512034
2022-12-03T09:15:02.319Z,73.41641583180048
2022-12-03T09:30:01.968Z,74.24922481967127
2022-12-03T09:45:01.650Z,73.77886639381009
2022-12-03T10:00:02.269Z,73.59652854790444
2022-12-03T10:15:01.965Z,73.5318178255296
2022-12-03T10:30:01.644Z,73.41340640874219
2022-12-03T14:00:01.680Z,72.72000679480824
2022-12-03T14:15:02.330Z,72.46504698753469
2022-12-03T14:30:01.949Z,72.83531917679275
2022-12-03T14:45:01.601Z,73.10355632061133
2022-12-03T15:00:02.220Z,71.99618884970477
2022-12-03T15:15:01.877Z,72.73053280608552
2022-12-03T15:30:01.572Z,72.6036992261628
2022-12-03T15:45:02.265Z,73.00472021452626
2022-12-03T16:00:01.876Z,71.9891595936034
2022-12-03T16:15:02.523Z,72.48694895611348
2022-12-03T16:30:02.192Z,73.05896101829272
2022-12-03T16:45:01.835Z,73.48697559301719
2022-12-03T17:00:02.470Z,72.36977190703497
2022-12-03T17:15:02.093Z,72.44062864248794
2022-12-03T17:30:01.812Z,72.46902690850456
2022-12-03T17:45:02.470Z,71.85847956317286
2022-12-03T18:00:02.091Z,73.0561931094971
2022-12-03T18:15:01.738Z,73.29935701322242
2022-12-03T18:30:02.433Z,72.92592245454684
2022-12-03T18:45:02.028Z,72.83639843625566
2022-12-03T19:00:01.691Z,72.95710515309487
2022-12-03T19:15:02.347Z,72.75331116824728
2022-12-03T19:30:01.997Z,72.89493149230313
2022-12-03T19:45:01.652Z,73.16637236248857
2022-12-03T20:00:02.322Z,72.76636932945665
2022-12-03T20:15:01.963Z,72.67765963314453
2022-12-03T20:30:01.660Z,72.86823024599273
2022-12-03T20:45:02.341Z,72.48421094979874
2022-12-03T21:00:02.142Z,73.32286478455282
2022-12-03T21:15:01.879Z,73.44546752933724
2022-12-03T21:30:02.557Z,73.81111608370327
2022-12-03T21:45:02.250Z,73.45183604700887
2022-12-03T22:00:01.911Z,73.15120269229017
2022-12-03T22:15:02.549Z,73.3758772382628
2022-12-03T22:30:02.211Z,73.5831790604399
2022-12-03T22:45:01.885Z,73.71490703477824
2022-12-03T23:00:02.729Z,73.94280590820641
2022-12-03T23:15:02.422Z,74.06153171195355
2022-12-03T23:30:02.057Z,74.210768698326
2022-12-03T23:45:01.729Z,74.11731713268976
